sensor_id;sensor_type;location;lat;lon;timestamp;P1;durP1;ratioP1;P2;durP2;ratioP2
17059;SDS011;8646;49.716;9.266;2023-04-03T00:01:08;2.77;;;1.60;;
17059;SDS011;8646;49.716;9.266;2023-04-03T00:04:11;5.40;;;1.80;;
17059;SDS011;8646;49.716;9.266;2023-04-03T00:07:15;5.53;;;1.87;;
17059;SDS011;8646;49.716;9.266;2023-04-03T00:10:18;5.30;;;2.30;;
17059;SDS011;8646;49.716;9.266;2023-04-03T00:13:22;4.83;;;2.07;;
17059;SDS011;8646;49.716;9.266;2023-04-03T00:16:25;3.90;;;1.80;;
17059;SDS011;8646;49.716;9.266;2023-04-03T00:19:28;5.03;;;1.67;;
17059;SDS011;8646;49.716;9.266;2023-04-03T00:22:32;4.27;;;1.90;;
17059;SDS011;8646;49.716;9.266;2023-04-03T00:25:35;4.73;;;2.07;;
17059;SDS011;8646;49.716;9.266;2023-04-03T00:28:38;6.67;;;1.90;;
17059;SDS011;8646;49.716;9.266;2023-04-03T00:31:41;7.50;;;2.43;;
17059;SDS011;8646;49.716;9.266;2023-04-03T00:34:43;8.37;;;2.10;;
17059;SDS011;8646;49.716;9.266;2023-04-03T00:37:47;4.07;;;2.20;;
17059;SDS011;8646;49.716;9.266;2023-04-03T00:40:52;4.83;;;2.10;;
17059;SDS011;8646;49.716;9.266;2023-04-03T00:43:55;15.77;;;5.03;;
17059;SDS011;8646;49.716;9.266;2023-04-03T00:46:58;10.10;;;4.07;;
17059;SDS011;8646;49.716;9.266;2023-04-03T00:50:01;9.07;;;4.07;;
17059;SDS011;8646;49.716;9.266;2023-04-03T00:53:06;9.20;;;3.87;;
17059;SDS011;8646;49.716;9.266;2023-04-03T00:56:12;5.43;;;3.07;;
17059;SDS011;8646;49.716;9.266;2023-04-03T00:59:20;8.40;;;3.10;;
17059;SDS011;8646;49.716;9.266;2023-04-03T01:02:27;5.73;;;2.57;;
17059;SDS011;8646;49.716;9.266;2023-04-03T01:05:30;5.37;;;2.60;;
17059;SDS011;8646;49.716;9.266;2023-04-03T01:08:35;3.53;;;2.20;;
17059;SDS011;8646;49.716;9.266;2023-04-03T01:11:38;4.27;;;2.00;;
17059;SDS011;8646;49.716;9.266;2023-04-03T01:14:41;5.03;;;2.27;;
17059;SDS011;8646;49.716;9.266;2023-04-03T01:17:45;4.57;;;2.63;;
17059;SDS011;8646;49.716;9.266;2023-04-03T01:21:04;4.50;;;2.27;;
17059;SDS011;8646;49.716;9.266;2023-04-03T01:24:36;4.10;;;2.33;;
17059;SDS011;8646;49.716;9.266;2023-04-03T01:27:40;5.07;;;2.20;;
17059;SDS011;8646;49.716;9.266;2023-04-03T01:30:45;5.30;;;2.10;;
17059;SDS011;8646;49.716;9.266;2023-04-03T01:33:54;3.90;;;2.10;;
17059;SDS011;8646;49.716;9.266;2023-04-03T01:36:57;7.30;;;2.60;;
17059;SDS011;8646;49.716;9.266;2023-04-03T01:40:01;5.60;;;2.23;;
17059;SDS011;8646;49.716;9.266;2023-04-03T01:43:04;7.40;;;3.23;;
17059;SDS011;8646;49.716;9.266;2023-04-03T01:46:07;7.93;;;3.00;;
17059;SDS011;8646;49.716;9.266;2023-04-03T01:49:14;5.30;;;2.63;;
17059;SDS011;8646;49.716;9.266;2023-04-03T01:52:16;5.07;;;2.50;;
17059;SDS011;8646;49.716;9.266;2023-04-03T01:55:19;7.30;;;2.33;;
17059;SDS011;8646;49.716;9.266;2023-04-03T01:58:24;4.80;;;2.27;;
17059;SDS011;8646;49.716;9.266;2023-04-03T02:01:27;5.60;;;2.57;;
17059;SDS011;8646;49.716;9.266;2023-04-03T02:04:31;4.93;;;2.70;;
17059;SDS011;8646;49.716;9.266;2023-04-03T02:07:34;6.37;;;3.80;;
17059;SDS011;8646;49.716;9.266;2023-04-03T02:10:39;6.63;;;3.93;;
17059;SDS011;8646;49.716;9.266;2023-04-03T02:13:42;8.40;;;4.30;;
17059;SDS011;8646;49.716;9.266;2023-04-03T02:16:44;5.63;;;3.40;;
17059;SDS011;8646;49.716;9.266;2023-04-03T02:19:48;9.63;;;3.90;;
17059;SDS011;8646;49.716;9.266;2023-04-03T02:22:51;4.80;;;3.13;;
17059;SDS011;8646;49.716;9.266;2023-04-03T02:26:01;11.13;;;3.53;;
17059;SDS011;8646;49.716;9.266;2023-04-03T02:29:08;5.93;;;3.10;;
17059;SDS011;8646;49.716;9.266;2023-04-03T02:32:11;5.87;;;3.00;;
17059;SDS011;8646;49.716;9.266;2023-04-03T02:35:15;5.77;;;2.90;;
17059;SDS011;8646;49.716;9.266;2023-04-03T02:38:18;5.40;;;2.90;;
17059;SDS011;8646;49.716;9.266;2023-04-03T02:41:24;7.50;;;3.30;;
17059;SDS011;8646;49.716;9.266;2023-04-03T02:44:33;7.53;;;3.80;;
17059;SDS011;8646;49.716;9.266;2023-04-03T02:47:36;9.23;;;4.50;;
17059;SDS011;8646;49.716;9.266;2023-04-03T02:50:41;7.00;;;4.33;;
17059;SDS011;8646;49.716;9.266;2023-04-03T02:53:44;6.43;;;4.07;;
17059;SDS011;8646;49.716;9.266;2023-04-03T02:56:47;9.00;;;3.07;;
17059;SDS011;8646;49.716;9.266;2023-04-03T02:59:50;8.43;;;4.00;;
17059;SDS011;8646;49.716;9.266;2023-04-03T03:02:52;13.47;;;5.90;;
17059;SDS011;8646;49.716;9.266;2023-04-03T03:06:03;10.30;;;4.67;;
17059;SDS011;8646;49.716;9.266;2023-04-03T03:09:07;9.10;;;3.43;;
17059;SDS011;8646;49.716;9.266;2023-04-03T03:12:10;7.23;;;3.30;;
17059;SDS011;8646;49.716;9.266;2023-04-03T03:15:13;9.30;;;3.50;;
17059;SDS011;8646;49.716;9.266;2023-04-03T03:18:16;8.47;;;3.10;;
17059;SDS011;8646;49.716;9.266;2023-04-03T03:21:20;5.03;;;2.63;;
17059;SDS011;8646;49.716;9.266;2023-04-03T03:24:23;5.53;;;2.60;;
17059;SDS011;8646;49.716;9.266;2023-04-03T03:27:26;5.47;;;2.93;;
17059;SDS011;8646;49.716;9.266;2023-04-03T03:30:29;5.87;;;2.90;;
17059;SDS011;8646;49.716;9.266;2023-04-03T03:33:32;8.07;;;2.93;;
17059;SDS011;8646;49.716;9.266;2023-04-03T03:36:36;6.63;;;3.27;;
17059;SDS011;8646;49.716;9.266;2023-04-03T03:39:39;5.63;;;2.40;;
17059;SDS011;8646;49.716;9.266;2023-04-03T03:42:42;8.33;;;3.30;;
17059;SDS011;8646;49.716;9.266;2023-04-03T03:45:45;6.70;;;4.00;;
17059;SDS011;8646;49.716;9.266;2023-04-03T03:48:52;6.43;;;3.97;;
17059;SDS011;8646;49.716;9.266;2023-04-03T03:52:01;6.53;;;4.17;;
17059;SDS011;8646;49.716;9.266;2023-04-03T03:55:04;8.17;;;4.30;;
17059;SDS011;8646;49.716;9.266;2023-04-03T03:58:07;12.17;;;5.47;;
17059;SDS011;8646;49.716;9.266;2023-04-03T04:01:10;17.30;;;9.60;;
17059;SDS011;8646;49.716;9.266;2023-04-03T04:04:13;26.77;;;11.30;;
17059;SDS011;8646;49.716;9.266;2023-04-03T04:07:20;18.67;;;7.30;;
17059;SDS011;8646;49.716;9.266;2023-04-03T04:10:25;14.13;;;6.73;;
17059;SDS011;8646;49.716;9.266;2023-04-03T04:13:28;16.73;;;7.87;;
17059;SDS011;8646;49.716;9.266;2023-04-03T04:16:31;18.93;;;7.53;;
17059;SDS011;8646;49.716;9.266;2023-04-03T04:19:36;15.37;;;6.40;;
17059;SDS011;8646;49.716;9.266;2023-04-03T04:22:41;15.20;;;6.50;;
17059;SDS011;8646;49.716;9.266;2023-04-03T04:25:44;19.77;;;8.03;;
17059;SDS011;8646;49.716;9.266;2023-04-03T04:28:47;21.03;;;9.43;;
17059;SDS011;8646;49.716;9.266;2023-04-03T04:31:50;23.70;;;10.67;;
17059;SDS011;8646;49.716;9.266;2023-04-03T04:34:52;23.17;;;9.83;;
17059;SDS011;8646;49.716;9.266;2023-04-03T04:37:57;18.57;;;8.17;;
17059;SDS011;8646;49.716;9.266;2023-04-03T04:41:00;16.10;;;8.20;;
17059;SDS011;8646;49.716;9.266;2023-04-03T04:44:03;16.93;;;7.37;;
17059;SDS011;8646;49.716;9.266;2023-04-03T04:47:06;17.77;;;7.00;;
17059;SDS011;8646;49.716;9.266;2023-04-03T04:50:09;8.70;;;5.10;;
17059;SDS011;8646;49.716;9.266;2023-04-03T04:53:14;13.47;;;7.63;;
17059;SDS011;8646;49.716;9.266;2023-04-03T04:56:17;19.07;;;9.93;;
17059;SDS011;8646;49.716;9.266;2023-04-03T04:59:21;17.23;;;8.20;;
17059;SDS011;8646;49.716;9.266;2023-04-03T05:02:24;20.50;;;9.80;;
17059;SDS011;8646;49.716;9.266;2023-04-03T05:05:29;17.57;;;8.73;;
17059;SDS011;8646;49.716;9.266;2023-04-03T05:08:33;14.83;;;7.83;;
17059;SDS011;8646;49.716;9.266;2023-04-03T05:11:36;18.93;;;11.10;;
17059;SDS011;8646;49.716;9.266;2023-04-03T05:14:39;11.07;;;6.03;;
17059;SDS011;8646;49.716;9.266;2023-04-03T05:17:41;11.47;;;5.87;;
17059;SDS011;8646;49.716;9.266;2023-04-03T05:20:44;12.63;;;5.27;;
17059;SDS011;8646;49.716;9.266;2023-04-03T05:23:48;20.77;;;8.30;;
17059;SDS011;8646;49.716;9.266;2023-04-03T05:26:51;33.77;;;14.47;;
17059;SDS011;8646;49.716;9.266;2023-04-03T05:29:54;29.50;;;11.67;;
17059;SDS011;8646;49.716;9.266;2023-04-03T05:33:00;19.07;;;8.80;;
17059;SDS011;8646;49.716;9.266;2023-04-03T05:36:04;16.80;;;9.13;;
17059;SDS011;8646;49.716;9.266;2023-04-03T05:39:09;14.40;;;7.80;;
17059;SDS011;8646;49.716;9.266;2023-04-03T05:42:12;13.03;;;6.67;;
17059;SDS011;8646;49.716;9.266;2023-04-03T05:45:15;9.87;;;5.50;;
17059;SDS011;8646;49.716;9.266;2023-04-03T05:48:18;10.80;;;5.23;;
17059;SDS011;8646;49.716;9.266;2023-04-03T05:51:22;9.53;;;5.50;;
17059;SDS011;8646;49.716;9.266;2023-04-03T05:54:37;8.63;;;4.33;;
17059;SDS011;8646;49.716;9.266;2023-04-03T05:57:40;13.33;;;5.77;;
17059;SDS011;8646;49.716;9.266;2023-04-03T06:00:46;17.67;;;6.63;;
17059;SDS011;8646;49.716;9.266;2023-04-03T06:03:49;10.33;;;5.50;;
17059;SDS011;8646;49.716;9.266;2023-04-03T06:06:53;11.80;;;5.57;;
17059;SDS011;8646;49.716;9.266;2023-04-03T06:09:58;10.37;;;6.20;;
17059;SDS011;8646;49.716;9.266;2023-04-03T06:13:01;13.17;;;5.00;;
17059;SDS011;8646;49.716;9.266;2023-04-03T06:16:04;8.70;;;4.30;;
17059;SDS011;8646;49.716;9.266;2023-04-03T06:19:11;7.23;;;4.13;;
17059;SDS011;8646;49.716;9.266;2023-04-03T06:22:15;6.87;;;3.20;;
17059;SDS011;8646;49.716;9.266;2023-04-03T06:25:19;8.57;;;4.10;;
17059;SDS011;8646;49.716;9.266;2023-04-03T06:28:22;11.13;;;4.37;;
17059;SDS011;8646;49.716;9.266;2023-04-03T06:31:28;8.40;;;3.77;;
17059;SDS011;8646;49.716;9.266;2023-04-03T06:34:31;8.60;;;4.20;;
17059;SDS011;8646;49.716;9.266;2023-04-03T06:37:34;10.50;;;4.97;;
17059;SDS011;8646;49.716;9.266;2023-04-03T06:40:38;12.40;;;4.73;;
17059;SDS011;8646;49.716;9.266;2023-04-03T06:43:41;12.15;;;4.90;;
17059;SDS011;8646;49.716;9.266;2023-04-03T06:46:44;9.43;;;4.80;;
17059;SDS011;8646;49.716;9.266;2023-04-03T06:49:48;12.43;;;4.90;;
17059;SDS011;8646;49.716;9.266;2023-04-03T06:52:50;11.20;;;4.30;;
17059;SDS011;8646;49.716;9.266;2023-04-03T06:55:54;6.13;;;2.60;;
17059;SDS011;8646;49.716;9.266;2023-04-03T06:58:57;18.43;;;2.17;;
17059;SDS011;8646;49.716;9.266;2023-04-03T07:02:01;6.20;;;1.47;;
17059;SDS011;8646;49.716;9.266;2023-04-03T07:05:05;4.97;;;1.70;;
17059;SDS011;8646;49.716;9.266;2023-04-03T07:08:09;3.17;;;1.37;;
17059;SDS011;8646;49.716;9.266;2023-04-03T07:11:13;4.60;;;1.53;;
17059;SDS011;8646;49.716;9.266;2023-04-03T07:14:16;3.90;;;1.60;;
17059;SDS011;8646;49.716;9.266;2023-04-03T07:17:26;5.40;;;1.27;;
17059;SDS011;8646;49.716;9.266;2023-04-03T07:20:29;4.93;;;1.73;;
17059;SDS011;8646;49.716;9.266;2023-04-03T07:23:32;1.30;;;0.80;;
17059;SDS011;8646;49.716;9.266;2023-04-03T07:26:37;7.20;;;1.80;;
17059;SDS011;8646;49.716;9.266;2023-04-03T07:29:42;1.73;;;0.77;;
17059;SDS011;8646;49.716;9.266;2023-04-03T07:32:45;1.40;;;0.87;;
17059;SDS011;8646;49.716;9.266;2023-04-03T07:35:48;7.27;;;1.90;;
17059;SDS011;8646;49.716;9.266;2023-04-03T07:38:51;5.17;;;1.20;;
17059;SDS011;8646;49.716;9.266;2023-04-03T07:41:55;5.60;;;1.50;;
17059;SDS011;8646;49.716;9.266;2023-04-03T07:44:58;11.27;;;1.50;;
17059;SDS011;8646;49.716;9.266;2023-04-03T07:48:02;3.83;;;1.37;;
17059;SDS011;8646;49.716;9.266;2023-04-03T07:51:05;5.00;;;1.23;;
17059;SDS011;8646;49.716;9.266;2023-04-03T07:54:08;4.90;;;1.30;;
17059;SDS011;8646;49.716;9.266;2023-04-03T07:57:12;5.23;;;1.13;;
17059;SDS011;8646;49.716;9.266;2023-04-03T08:00:15;4.93;;;1.23;;
17059;SDS011;8646;49.716;9.266;2023-04-03T08:03:18;6.67;;;1.30;;
17059;SDS011;8646;49.716;9.266;2023-04-03T08:06:22;4.70;;;1.30;;
17059;SDS011;8646;49.716;9.266;2023-04-03T08:09:44;4.40;;;1.60;;
17059;SDS011;8646;49.716;9.266;2023-04-03T08:12:48;4.37;;;1.60;;
17059;SDS011;8646;49.716;9.266;2023-04-03T08:15:52;4.87;;;0.97;;
17059;SDS011;8646;49.716;9.266;2023-04-03T08:18:55;5.03;;;1.13;;
17059;SDS011;8646;49.716;9.266;2023-04-03T08:21:57;3.17;;;1.20;;
17059;SDS011;8646;49.716;9.266;2023-04-03T08:25:02;4.70;;;1.50;;
17059;SDS011;8646;49.716;9.266;2023-04-03T08:28:06;5.40;;;1.60;;
17059;SDS011;8646;49.716;9.266;2023-04-03T08:31:10;5.47;;;2.30;;
17059;SDS011;8646;49.716;9.266;2023-04-03T08:34:15;4.67;;;1.37;;
17059;SDS011;8646;49.716;9.266;2023-04-03T08:37:18;5.50;;;1.50;;
17059;SDS011;8646;49.716;9.266;2023-04-03T08:40:21;5.17;;;2.63;;
17059;SDS011;8646;49.716;9.266;2023-04-03T08:43:29;7.13;;;1.57;;
17059;SDS011;8646;49.716;9.266;2023-04-03T08:46:40;4.60;;;1.47;;
17059;SDS011;8646;49.716;9.266;2023-04-03T08:49:51;5.10;;;1.33;;
17059;SDS011;8646;49.716;9.266;2023-04-03T08:52:55;4.57;;;1.37;;
17059;SDS011;8646;49.716;9.266;2023-04-03T08:56:00;2.67;;;1.63;;
17059;SDS011;8646;49.716;9.266;2023-04-03T08:59:10;2.80;;;1.10;;
17059;SDS011;8646;49.716;9.266;2023-04-03T09:02:22;3.43;;;1.43;;
17059;SDS011;8646;49.716;9.266;2023-04-03T09:05:32;6.03;;;1.50;;
17059;SDS011;8646;49.716;9.266;2023-04-03T09:08:43;2.80;;;1.00;;
17059;SDS011;8646;49.716;9.266;2023-04-03T09:11:54;5.57;;;1.80;;
17059;SDS011;8646;49.716;9.266;2023-04-03T09:15:16;3.10;;;0.80;;
17059;SDS011;8646;49.716;9.266;2023-04-03T09:18:36;3.13;;;1.30;;
17059;SDS011;8646;49.716;9.266;2023-04-03T09:21:47;4.90;;;1.10;;
17059;SDS011;8646;49.716;9.266;2023-04-03T09:24:52;2.53;;;1.00;;
17059;SDS011;8646;49.716;9.266;2023-04-03T09:28:02;2.50;;;1.20;;
17059;SDS011;8646;49.716;9.266;2023-04-03T09:31:15;2.37;;;1.00;;
17059;SDS011;8646;49.716;9.266;2023-04-03T09:34:23;4.60;;;1.70;;
17059;SDS011;8646;49.716;9.266;2023-04-03T09:37:36;2.20;;;0.90;;
17059;SDS011;8646;49.716;9.266;2023-04-03T09:40:43;3.93;;;1.77;;
17059;SDS011;8646;49.716;9.266;2023-04-03T09:43:51;3.40;;;0.97;;
17059;SDS011;8646;49.716;9.266;2023-04-03T09:46:57;2.33;;;1.10;;
17059;SDS011;8646;49.716;9.266;2023-04-03T09:50:15;3.23;;;1.40;;
17059;SDS011;8646;49.716;9.266;2023-04-03T09:53:26;2.83;;;1.40;;
17059;SDS011;8646;49.716;9.266;2023-04-03T09:56:30;9.93;;;1.50;;
17059;SDS011;8646;49.716;9.266;2023-04-03T09:59:33;3.23;;;1.07;;
17059;SDS011;8646;49.716;9.266;2023-04-03T10:02:38;3.37;;;1.47;;
17059;SDS011;8646;49.716;9.266;2023-04-03T10:05:41;9.87;;;1.23;;
17059;SDS011;8646;49.716;9.266;2023-04-03T10:08:44;3.77;;;1.33;;
17059;SDS011;8646;49.716;9.266;2023-04-03T10:12:03;3.27;;;1.60;;
17059;SDS011;8646;49.716;9.266;2023-04-03T10:15:10;4.43;;;1.77;;
17059;SDS011;8646;49.716;9.266;2023-04-03T10:18:22;4.43;;;1.63;;
17059;SDS011;8646;49.716;9.266;2023-04-03T10:21:35;4.03;;;1.53;;
17059;SDS011;8646;49.716;9.266;2023-04-03T10:24:48;1.03;;;0.70;;
17059;SDS011;8646;49.716;9.266;2023-04-03T10:27:58;2.80;;;1.20;;
17059;SDS011;8646;49.716;9.266;2023-04-03T10:31:04;5.03;;;1.47;;
17059;SDS011;8646;49.716;9.266;2023-04-03T10:34:17;4.00;;;1.60;;
17059;SDS011;8646;49.716;9.266;2023-04-03T10:37:24;3.47;;;1.70;;
17059;SDS011;8646;49.716;9.266;2023-04-03T10:40:34;3.47;;;1.50;;
17059;SDS011;8646;49.716;9.266;2023-04-03T10:43:48;4.83;;;1.60;;
17059;SDS011;8646;49.716;9.266;2023-04-03T10:46:58;6.23;;;1.70;;
17059;SDS011;8646;49.716;9.266;2023-04-03T10:50:15;4.27;;;1.10;;
17059;SDS011;8646;49.716;9.266;2023-04-03T10:53:30;3.87;;;1.27;;
17059;SDS011;8646;49.716;9.266;2023-04-03T10:56:38;2.73;;;1.13;;
17059;SDS011;8646;49.716;9.266;2023-04-03T10:59:43;4.17;;;2.03;;
17059;SDS011;8646;49.716;9.266;2023-04-03T11:02:51;2.53;;;0.97;;
17059;SDS011;8646;49.716;9.266;2023-04-03T11:05:59;3.90;;;1.40;;
17059;SDS011;8646;49.716;9.266;2023-04-03T11:09:05;3.63;;;1.47;;
17059;SDS011;8646;49.716;9.266;2023-04-03T11:12:15;4.17;;;1.97;;
17059;SDS011;8646;49.716;9.266;2023-04-03T11:15:21;2.97;;;1.33;;
17059;SDS011;8646;49.716;9.266;2023-04-03T11:18:26;3.87;;;0.97;;
17059;SDS011;8646;49.716;9.266;2023-04-03T11:21:37;2.57;;;1.20;;
17059;SDS011;8646;49.716;9.266;2023-04-03T11:24:46;4.60;;;1.60;;
17059;SDS011;8646;49.716;9.266;2023-04-03T11:27:59;3.27;;;1.43;;
17059;SDS011;8646;49.716;9.266;2023-04-03T11:31:08;7.67;;;1.50;;
17059;SDS011;8646;49.716;9.266;2023-04-03T11:34:26;4.60;;;1.27;;
17059;SDS011;8646;49.716;9.266;2023-04-03T11:37:39;2.80;;;1.73;;
17059;SDS011;8646;49.716;9.266;2023-04-03T11:40:46;8.43;;;1.50;;
17059;SDS011;8646;49.716;9.266;2023-04-03T11:43:55;4.90;;;1.60;;
17059;SDS011;8646;49.716;9.266;2023-04-03T11:46:59;4.90;;;1.43;;
17059;SDS011;8646;49.716;9.266;2023-04-03T11:50:03;4.40;;;1.67;;
17059;SDS011;8646;49.716;9.266;2023-04-03T11:53:28;0.93;;;0.60;;
17059;SDS011;8646;49.716;9.266;2023-04-03T11:56:33;3.30;;;1.40;;
17059;SDS011;8646;49.716;9.266;2023-04-03T11:59:36;1.23;;;0.90;;
17059;SDS011;8646;49.716;9.266;2023-04-03T12:02:39;2.93;;;1.30;;
17059;SDS011;8646;49.716;9.266;2023-04-03T12:05:55;2.37;;;1.60;;
17059;SDS011;8646;49.716;9.266;2023-04-03T12:09:01;5.17;;;1.80;;
17059;SDS011;8646;49.716;9.266;2023-04-03T12:18:56;3.40;;;0.60;;
17059;SDS011;8646;49.716;9.266;2023-04-03T12:22:06;6.00;;;1.30;;
17059;SDS011;8646;49.716;9.266;2023-04-03T12:28:52;8.30;;;1.50;;
17059;SDS011;8646;49.716;9.266;2023-04-03T12:32:00;4.03;;;1.53;;
17059;SDS011;8646;49.716;9.266;2023-04-03T12:35:14;11.43;;;1.97;;
17059;SDS011;8646;49.716;9.266;2023-04-03T12:38:28;2.93;;;1.10;;
17059;SDS011;8646;49.716;9.266;2023-04-03T12:41:45;4.50;;;1.50;;
17059;SDS011;8646;49.716;9.266;2023-04-03T12:44:59;3.07;;;1.67;;
17059;SDS011;8646;49.716;9.266;2023-04-03T12:48:14;3.87;;;1.70;;
17059;SDS011;8646;49.716;9.266;2023-04-03T12:51:19;6.37;;;1.40;;
17059;SDS011;8646;49.716;9.266;2023-04-03T12:54:26;3.33;;;1.13;;
17059;SDS011;8646;49.716;9.266;2023-04-03T12:57:34;2.63;;;0.93;;
17059;SDS011;8646;49.716;9.266;2023-04-03T13:00:37;0.80;;;0.50;;
17059;SDS011;8646;49.716;9.266;2023-04-03T13:03:43;4.07;;;1.53;;
17059;SDS011;8646;49.716;9.266;2023-04-03T13:06:48;3.73;;;1.87;;
17059;SDS011;8646;49.716;9.266;2023-04-03T13:09:55;7.03;;;2.43;;
17059;SDS011;8646;49.716;9.266;2023-04-03T13:13:08;3.43;;;1.40;;
17059;SDS011;8646;49.716;9.266;2023-04-03T13:16:12;4.77;;;1.13;;
17059;SDS011;8646;49.716;9.266;2023-04-03T13:19:18;3.77;;;1.27;;
17059;SDS011;8646;49.716;9.266;2023-04-03T13:22:24;2.97;;;0.97;;
17059;SDS011;8646;49.716;9.266;2023-04-03T13:25:32;2.37;;;0.87;;
17059;SDS011;8646;49.716;9.266;2023-04-03T13:28:38;1.73;;;1.00;;
17059;SDS011;8646;49.716;9.266;2023-04-03T13:31:43;1.67;;;0.87;;
17059;SDS011;8646;49.716;9.266;2023-04-03T13:34:46;5.30;;;1.10;;
17059;SDS011;8646;49.716;9.266;2023-04-03T13:37:53;2.83;;;0.90;;
17059;SDS011;8646;49.716;9.266;2023-04-03T13:40:58;3.83;;;1.37;;
17059;SDS011;8646;49.716;9.266;2023-04-03T13:47:38;3.80;;;1.30;;
17059;SDS011;8646;49.716;9.266;2023-04-03T13:50:57;1.93;;;0.90;;
17059;SDS011;8646;49.716;9.266;2023-04-03T13:54:12;1.70;;;0.67;;
17059;SDS011;8646;49.716;9.266;2023-04-03T13:57:20;1.10;;;0.70;;
17059;SDS011;8646;49.716;9.266;2023-04-03T14:00:33;5.67;;;1.40;;
17059;SDS011;8646;49.716;9.266;2023-04-03T14:03:42;3.27;;;1.57;;
17059;SDS011;8646;49.716;9.266;2023-04-03T14:06:47;2.10;;;0.90;;
17059;SDS011;8646;49.716;9.266;2023-04-03T14:09:50;1.97;;;0.93;;
17059;SDS011;8646;49.716;9.266;2023-04-03T14:12:54;2.70;;;1.30;;
17059;SDS011;8646;49.716;9.266;2023-04-03T14:15:58;2.47;;;1.10;;
17059;SDS011;8646;49.716;9.266;2023-04-03T14:19:20;3.13;;;1.10;;
17059;SDS011;8646;49.716;9.266;2023-04-03T14:22:25;2.00;;;0.63;;
17059;SDS011;8646;49.716;9.266;2023-04-03T14:25:30;1.77;;;1.07;;
17059;SDS011;8646;49.716;9.266;2023-04-03T14:28:33;4.67;;;1.40;;
17059;SDS011;8646;49.716;9.266;2023-04-03T14:31:37;3.33;;;1.40;;
17059;SDS011;8646;49.716;9.266;2023-04-03T14:34:41;3.00;;;1.10;;
17059;SDS011;8646;49.716;9.266;2023-04-03T14:37:44;2.13;;;0.63;;
17059;SDS011;8646;49.716;9.266;2023-04-03T14:40:49;4.77;;;1.63;;
17059;SDS011;8646;49.716;9.266;2023-04-03T14:43:51;2.57;;;1.07;;
17059;SDS011;8646;49.716;9.266;2023-04-03T14:46:56;4.20;;;1.30;;
17059;SDS011;8646;49.716;9.266;2023-04-03T14:49:59;3.03;;;1.00;;
17059;SDS011;8646;49.716;9.266;2023-04-03T14:53:02;2.77;;;1.10;;
17059;SDS011;8646;49.716;9.266;2023-04-03T14:56:10;2.53;;;1.20;;
17059;SDS011;8646;49.716;9.266;2023-04-03T14:59:14;4.33;;;1.23;;
17059;SDS011;8646;49.716;9.266;2023-04-03T15:02:26;3.07;;;1.77;;
17059;SDS011;8646;49.716;9.266;2023-04-03T15:05:31;1.93;;;0.83;;
17059;SDS011;8646;49.716;9.266;2023-04-03T15:08:34;10.67;;;6.03;;
17059;SDS011;8646;49.716;9.266;2023-04-03T15:11:37;8.10;;;4.60;;
17059;SDS011;8646;49.716;9.266;2023-04-03T15:14:40;4.30;;;1.80;;
17059;SDS011;8646;49.716;9.266;2023-04-03T15:17:55;5.10;;;2.10;;
17059;SDS011;8646;49.716;9.266;2023-04-03T15:20:59;4.73;;;2.00;;
17059;SDS011;8646;49.716;9.266;2023-04-03T15:24:02;2.63;;;1.00;;
17059;SDS011;8646;49.716;9.266;2023-04-03T15:27:05;2.43;;;1.40;;
17059;SDS011;8646;49.716;9.266;2023-04-03T15:30:11;4.57;;;2.27;;
17059;SDS011;8646;49.716;9.266;2023-04-03T15:33:17;59.73;;;27.93;;
17059;SDS011;8646;49.716;9.266;2023-04-03T15:36:21;8.40;;;2.30;;
17059;SDS011;8646;49.716;9.266;2023-04-03T15:39:29;3.10;;;1.60;;
17059;SDS011;8646;49.716;9.266;2023-04-03T15:42:32;2.57;;;0.93;;
17059;SDS011;8646;49.716;9.266;2023-04-03T15:45:35;10.23;;;3.87;;
17059;SDS011;8646;49.716;9.266;2023-04-03T15:48:41;3.30;;;1.10;;
17059;SDS011;8646;49.716;9.266;2023-04-03T15:51:44;4.97;;;1.97;;
17059;SDS011;8646;49.716;9.266;2023-04-03T15:54:46;7.30;;;3.63;;
17059;SDS011;8646;49.716;9.266;2023-04-03T15:57:49;3.87;;;1.80;;
17059;SDS011;8646;49.716;9.266;2023-04-03T16:00:52;5.50;;;2.30;;
17059;SDS011;8646;49.716;9.266;2023-04-03T16:03:56;9.77;;;1.57;;
17059;SDS011;8646;49.716;9.266;2023-04-03T16:07:00;2.63;;;1.47;;
17059;SDS011;8646;49.716;9.266;2023-04-03T16:10:03;6.73;;;1.40;;
17059;SDS011;8646;49.716;9.266;2023-04-03T16:13:06;2.70;;;1.40;;
17059;SDS011;8646;49.716;9.266;2023-04-03T16:16:09;4.67;;;1.53;;
17059;SDS011;8646;49.716;9.266;2023-04-03T16:19:14;2.17;;;1.00;;
17059;SDS011;8646;49.716;9.266;2023-04-03T16:22:16;2.57;;;1.50;;
17059;SDS011;8646;49.716;9.266;2023-04-03T16:25:19;1.77;;;0.90;;
17059;SDS011;8646;49.716;9.266;2023-04-03T16:28:22;1.67;;;1.00;;
17059;SDS011;8646;49.716;9.266;2023-04-03T16:31:25;4.13;;;1.40;;
17059;SDS011;8646;49.716;9.266;2023-04-03T16:34:30;3.50;;;1.40;;
17059;SDS011;8646;49.716;9.266;2023-04-03T16:37:33;3.80;;;1.67;;
17059;SDS011;8646;49.716;9.266;2023-04-03T16:40:36;4.53;;;1.97;;
17059;SDS011;8646;49.716;9.266;2023-04-03T16:43:39;3.13;;;1.53;;
17059;SDS011;8646;49.716;9.266;2023-04-03T16:46:46;6.73;;;1.73;;
17059;SDS011;8646;49.716;9.266;2023-04-03T16:49:50;4.60;;;1.50;;
17059;SDS011;8646;49.716;9.266;2023-04-03T16:52:53;5.13;;;1.70;;
17059;SDS011;8646;49.716;9.266;2023-04-03T16:55:56;2.70;;;1.43;;
17059;SDS011;8646;49.716;9.266;2023-04-03T16:59:00;6.40;;;1.97;;
17059;SDS011;8646;49.716;9.266;2023-04-03T17:02:02;3.77;;;1.20;;
17059;SDS011;8646;49.716;9.266;2023-04-03T17:05:08;5.53;;;1.10;;
17059;SDS011;8646;49.716;9.266;2023-04-03T17:08:10;6.03;;;2.03;;
17059;SDS011;8646;49.716;9.266;2023-04-03T17:11:15;2.50;;;1.03;;
17059;SDS011;8646;49.716;9.266;2023-04-03T17:14:18;2.10;;;1.23;;
17059;SDS011;8646;49.716;9.266;2023-04-03T17:17:21;3.77;;;1.40;;
17059;SDS011;8646;49.716;9.266;2023-04-03T17:20:27;10.37;;;4.43;;
17059;SDS011;8646;49.716;9.266;2023-04-03T17:23:31;3.87;;;1.60;;
17059;SDS011;8646;49.716;9.266;2023-04-03T17:26:36;3.93;;;1.50;;
17059;SDS011;8646;49.716;9.266;2023-04-03T17:29:39;5.53;;;2.57;;
17059;SDS011;8646;49.716;9.266;2023-04-03T17:32:42;6.67;;;2.20;;
17059;SDS011;8646;49.716;9.266;2023-04-03T17:35:46;5.63;;;1.73;;
17059;SDS011;8646;49.716;9.266;2023-04-03T17:38:49;5.27;;;1.40;;
17059;SDS011;8646;49.716;9.266;2023-04-03T17:41:52;4.43;;;1.90;;
17059;SDS011;8646;49.716;9.266;2023-04-03T17:44:56;2.60;;;1.67;;
17059;SDS011;8646;49.716;9.266;2023-04-03T17:47:58;6.63;;;2.30;;
17059;SDS011;8646;49.716;9.266;2023-04-03T17:51:04;2.23;;;1.43;;
17059;SDS011;8646;49.716;9.266;2023-04-03T17:54:07;4.30;;;1.67;;
17059;SDS011;8646;49.716;9.266;2023-04-03T17:57:11;2.50;;;1.30;;
17059;SDS011;8646;49.716;9.266;2023-04-03T18:00:14;8.70;;;3.33;;
17059;SDS011;8646;49.716;9.266;2023-04-03T18:03:17;3.23;;;1.73;;
17059;SDS011;8646;49.716;9.266;2023-04-03T18:06:22;5.20;;;1.80;;
17059;SDS011;8646;49.716;9.266;2023-04-03T18:09:29;2.97;;;1.73;;
17059;SDS011;8646;49.716;9.266;2023-04-03T18:12:34;3.33;;;1.10;;
17059;SDS011;8646;49.716;9.266;2023-04-03T18:15:37;23.90;;;8.70;;
17059;SDS011;8646;49.716;9.266;2023-04-03T18:18:45;6.63;;;2.83;;
17059;SDS011;8646;49.716;9.266;2023-04-03T18:21:56;7.03;;;2.87;;
17059;SDS011;8646;49.716;9.266;2023-04-03T18:25:02;8.67;;;2.40;;
17059;SDS011;8646;49.716;9.266;2023-04-03T18:28:06;6.87;;;2.10;;
17059;SDS011;8646;49.716;9.266;2023-04-03T18:31:09;7.50;;;2.80;;
17059;SDS011;8646;49.716;9.266;2023-04-03T18:34:16;8.57;;;2.77;;
17059;SDS011;8646;49.716;9.266;2023-04-03T18:37:20;10.47;;;3.70;;
17059;SDS011;8646;49.716;9.266;2023-04-03T18:40:24;4.73;;;2.30;;
17059;SDS011;8646;49.716;9.266;2023-04-03T18:43:27;5.03;;;2.37;;
17059;SDS011;8646;49.716;9.266;2023-04-03T18:46:30;4.33;;;1.90;;
17059;SDS011;8646;49.716;9.266;2023-04-03T18:49:33;4.00;;;2.30;;
17059;SDS011;8646;49.716;9.266;2023-04-03T18:52:40;3.07;;;1.80;;
17059;SDS011;8646;49.716;9.266;2023-04-03T18:55:43;3.77;;;1.67;;
17059;SDS011;8646;49.716;9.266;2023-04-03T18:58:47;11.03;;;2.73;;
17059;SDS011;8646;49.716;9.266;2023-04-03T19:01:49;5.40;;;2.63;;
17059;SDS011;8646;49.716;9.266;2023-04-03T19:04:52;8.97;;;1.57;;